Time;durP1;ratioP1;P1;durP2;ratioP2;P2;SDS_P1;SDS_P2;PMS_P1;PMS_P2;Temp;Humidity;BMP_temperature;BMP_pressure;BME280_temperature;BME280_humidity;BME280_pressure;Samples;Min_cycle;Max_cycle;Signal;HPM_P1;HPM_P2
2022/11/28 00:06:18;;;;;;;21.23;13.67;;;6.90;97.60;;;;;;21007106;28;20308;-72
2022/11/28 00:16:21;;;;;;;21.60;13.73;;;6.90;97.60;;;;;;20977193;28;20632;-71
2022/11/28 00:26:29;;;;;;;20.60;13.77;;;6.90;97.60;;;;;;20922929;28;20300;-71
2022/11/28 00:36:31;;;;;;;20.87;13.93;;;6.90;97.50;;;;;;20923469;28;20581;-70
2022/11/28 00:46:32;;;;;;;23.43;13.50;;;6.90;97.50;;;;;;20922447;28;20240;-72
2022/11/28 00:56:37;;;;;;;21.97;13.27;;;7.00;97.50;;;;;;20921964;28;20216;-69
2022/11/28 01:06:44;;;;;;;22.77;13.80;;;7.10;97.50;;;;;;20920798;28;20265;-69
2022/11/28 01:16:46;;;;;;;20.60;13.40;;;7.10;97.40;;;;;;20954685;28;20252;-71
2022/11/28 01:26:48;;;;;;;21.80;13.87;;;7.10;97.40;;;;;;21002366;28;20293;-71
2022/11/28 01:36:49;;;;;;;20.97;13.57;;;7.10;97.40;;;;;;21001494;28;20222;-71
2022/11/28 01:46:51;;;;;;;24.23;14.67;;;7.00;97.30;;;;;;20999426;28;20238;-71
2022/11/28 01:56:59;;;;;;;20.77;13.20;;;7.00;97.30;;;;;;21000201;28;20248;-71
2022/11/28 02:07:01;;;;;;;22.87;13.97;;;7.00;97.30;;;;;;20998867;28;20238;-71
2022/11/28 02:17:50;;;;;;;21.70;13.17;;;7.00;97.30;;;;;;20960896;28;20616;-70
2022/11/28 02:28:10;;;;;;;23.17;13.87;;;6.90;97.30;;;;;;20890197;28;20621;-70
2022/11/28 02:38:19;;;;;;;19.90;13.13;;;6.80;97.30;;;;;;20914077;28;20210;-72
2022/11/28 02:48:47;;;;;;;23.07;14.50;;;6.80;97.20;;;;;;20913302;28;20695;-72
2022/11/28 02:58:48;;;;;;;21.17;13.73;;;6.80;97.30;;;;;;20913655;28;20207;-72
2022/11/28 03:09:28;;;;;;;23.53;14.20;;;6.80;97.30;;;;;;20912055;28;20235;-72
2022/11/28 03:19:42;;;;;;;22.97;14.20;;;6.80;97.20;;;;;;20912801;28;20262;-72
2022/11/28 03:30:12;;;;;;;18.97;12.63;;;6.80;97.20;;;;;;21000341;28;20243;-72
2022/11/28 03:40:19;;;;;;;19.50;12.07;;;6.70;97.20;;;;;;21010793;28;20212;-72
2022/11/28 03:50:26;;;;;;;20.90;12.13;;;6.70;97.20;;;;;;21010010;28;20241;-73
2022/11/28 04:00:28;;;;;;;23.67;13.17;;;6.80;97.20;;;;;;21009597;28;20668;-72
2022/11/28 04:10:37;;;;;;;24.87;13.53;;;6.70;97.20;;;;;;21008085;28;20310;-72
2022/11/28 04:20:45;;;;;;;22.93;13.27;;;6.70;97.10;;;;;;20940932;28;20202;-71
2022/11/28 04:30:50;;;;;;;22.13;13.10;;;6.70;97.10;;;;;;20924247;28;20250;-70
2022/11/28 04:40:59;;;;;;;21.97;13.33;;;6.60;97.10;;;;;;20922986;28;20256;-72
2022/11/28 04:51:03;;;;;;;24.47;13.63;;;6.60;97.10;;;;;;20922296;28;20244;-73
2022/11/28 05:01:10;;;;;;;23.17;14.27;;;6.60;97.20;;;;;;20921069;28;20206;-73
2022/11/28 05:11:12;;;;;;;22.63;14.80;;;6.60;97.20;;;;;;20920606;28;20273;-74
2022/11/28 05:21:13;;;;;;;23.77;14.03;;;6.60;97.10;;;;;;20990444;28;20226;-73
2022/11/28 05:31:17;;;;;;;22.53;13.17;;;6.60;97.10;;;;;;21001560;28;20239;-73
2022/11/28 05:41:25;;;;;;;23.87;13.70;;;6.60;97.10;;;;;;21001174;28;20720;-71
2022/11/28 05:51:26;;;;;;;24.50;14.00;;;6.60;97.10;;;;;;20998675;28;20233;-69
2022/11/28 06:01:29;;;;;;;25.67;13.67;;;6.50;97.10;;;;;;20949111;28;20249;-69
2022/11/28 06:11:32;;;;;;;24.47;14.40;;;6.60;97.20;;;;;;20915097;28;20717;-71
2022/11/28 06:21:34;;;;;;;30.07;14.43;;;6.60;97.10;;;;;;20914624;28;20979;-70
2022/11/28 06:31:36;;;;;;;25.33;14.03;;;6.50;97.10;;;;;;20914014;28;20241;-69
2022/11/28 06:41:38;;;;;;;24.97;14.60;;;6.50;97.10;;;;;;20912909;28;20228;-69
2022/11/28 06:51:44;;;;;;;28.10;15.03;;;6.50;97.10;;;;;;20912400;28;20661;-70
2022/11/28 07:01:49;;;;;;;25.40;14.80;;;;;;;;;;20912042;28;20210;-71
2022/11/28 07:11:51;;;;;;;32.30;15.37;;;6.50;97.20;;;;;;20912129;28;20242;-71
2022/11/28 07:21:53;;;;;;;24.60;15.07;;;6.60;97.30;;;;;;20911407;28;20240;-69
2022/11/28 07:31:54;;;;;;;24.43;15.40;;;6.60;97.20;;;;;;20910182;28;20290;-72
2022/11/28 07:41:56;;;;;;;26.77;15.50;;;6.60;97.20;;;;;;20910029;28;20264;-70
2022/11/28 07:51:58;;;;;;;30.70;15.10;;;6.60;97.10;;;;;;20909532;28;20756;-70
2022/11/28 08:01:59;;;;;;;27.20;14.77;;;6.70;97.30;;;;;;20909119;28;20210;-70
2022/11/28 08:12:01;;;;;;;27.67;15.70;;;6.70;97.20;;;;;;20909115;28;20343;-69
2022/11/28 08:22:03;;;;;;;28.60;16.13;;;6.70;97.20;;;;;;20922938;28;20210;-71
2022/11/28 08:32:04;;;;;;;25.10;15.47;;;6.70;97.10;;;;;;20923215;28;20292;-71
2022/11/28 08:42:06;;;;;;;25.33;16.00;;;6.90;97.20;;;;;;20922715;28;20209;-72
2022/11/28 08:52:08;;;;;;;25.60;15.57;;;6.90;97.10;;;;;;20920874;28;20588;-72
2022/11/28 09:02:11;;;;;;;25.77;15.93;;;6.90;96.90;;;;;;20920507;28;20213;-72
2022/11/28 09:12:13;;;;;;;28.40;16.40;;;6.90;97.10;;;;;;20919748;28;20572;-71
2022/11/28 09:22:14;;;;;;;28.67;16.60;;;7.00;97.10;;;;;;20918587;28;20688;-71
2022/11/28 09:32:16;;;;;;;26.70;16.33;;;7.10;97.10;;;;;;20918269;28;20697;-70
2022/11/28 09:42:43;;;;;;;29.80;16.40;;;7.20;97.00;;;;;;20917887;28;20253;-71
2022/11/28 09:52:58;;;;;;;26.37;16.80;;;7.30;96.90;;;;;;20916319;28;20231;-71
2022/11/28 10:03:24;;;;;;;26.53;15.90;;;7.40;96.80;;;;;;20915864;28;20221;-72
2022/11/28 10:13:39;;;;;;;27.23;16.47;;;7.50;96.60;;;;;;20987191;28;20247;-71
2022/11/28 10:24:12;;;;;;;27.73;16.20;;;7.60;96.60;;;;;;20996303;28;20245;-71
2022/11/28 10:34:19;;;;;;;24.40;16.33;;;7.70;96.40;;;;;;20996281;28;20233;-70
2022/11/28 10:44:29;;;;;;;27.40;16.47;;;7.70;96.40;;;;;;20995269;28;20203;-72
2022/11/28 10:55:02;;;;;;;24.13;16.03;;;7.80;96.30;;;;;;20995167;28;20293;-72
2022/11/28 11:05:05;;;;;;;27.37;16.20;;;8.00;96.20;;;;;;20985223;28;20203;-73
2022/11/28 11:15:28;;;;;;;29.00;16.90;;;8.00;96.00;;;;;;20975968;28;20244;-72
2022/11/28 11:25:33;;;;;;;24.63;16.23;;;8.10;95.90;;;;;;20994215;28;20610;-71
2022/11/28 11:35:41;;;;;;;24.40;15.77;;;8.20;95.80;;;;;;20993203;28;20235;-72
2022/11/28 11:45:42;;;;;;;29.67;16.13;;;8.20;95.70;;;;;;20992414;28;20211;-71
2022/11/28 11:55:57;;;;;;;30.27;16.07;;;8.20;95.60;;;;;;21005723;28;20323;-71
2022/11/28 12:06:05;;;;;;;24.90;14.77;;;8.20;95.60;;;;;;21007102;28;20293;-69
2022/11/28 12:16:39;;;;;;;25.00;15.07;;;8.20;95.30;;;;;;21007017;28;20238;-70
2022/11/28 12:26:49;;;;;;;23.93;15.23;;;8.30;95.40;;;;;;21006456;28;20694;-72
2022/11/28 12:37:09;;;;;;;24.33;15.33;;;8.30;95.50;;;;;;21005071;28;20556;-72
2022/11/28 12:47:37;;;;;;;23.90;14.57;;;8.40;95.30;;;;;;21005051;28;20694;-72
2022/11/28 12:57:45;;;;;;;26.30;15.77;;;8.40;95.40;;;;;;20991225;28;20208;-71
2022/11/28 13:07:55;;;;;;;22.33;14.97;;;8.50;95.50;;;;;;21002688;28;20243;-70
2022/11/28 13:18:32;;;;;;;22.27;14.53;;;8.40;95.40;;;;;;21002337;28;20214;-70
2022/11/28 13:28:44;;;;;;;23.87;15.43;;;8.50;95.50;;;;;;21002067;28;20717;-70
2022/11/28 13:39:00;;;;;;;22.80;14.97;;;8.50;95.50;;;;;;21000924;28;20211;-71
2022/11/28 13:49:31;;;;;;;26.37;16.70;;;8.50;95.60;;;;;;20999595;28;20358;-71
2022/11/28 13:59:34;;;;;;;23.53;14.97;;;8.50;95.60;;;;;;20998534;28;20257;-76
2022/11/28 14:09:54;;;;;;;20.90;14.00;;;8.50;95.70;;;;;;20998181;28;20254;-79
2022/11/28 14:20:10;;;;;;;28.23;16.70;;;8.50;95.80;;;;;;20996502;28;20214;-70
2022/11/28 14:30:34;;;;;;;30.40;16.17;;;8.50;95.90;;;;;;20996648;28;20641;-77
2022/11/28 14:41:10;;;;;;;32.10;15.63;;;8.40;96.00;;;;;;20995900;28;20215;-74
2022/11/28 14:51:12;;;;;;;25.97;16.53;;;8.40;96.20;;;;;;20977681;28;20231;-73
2022/11/28 15:01:22;;;;;;;23.37;14.90;;;8.40;96.40;;;;;;20994984;28;20211;-73
2022/11/28 15:11:42;;;;;;;22.67;14.37;;;8.40;96.50;;;;;;20994668;28;20792;-76
2022/11/28 15:21:45;;;;;;;24.10;14.67;;;8.40;96.70;;;;;;20993869;28;20237;-76
2022/11/28 15:31:50;;;;;;;25.57;16.30;;;8.40;96.80;;;;;;21010418;28;20637;-75
2022/11/28 15:41:53;;;;;;;29.87;15.77;;;8.40;97.00;;;;;;21010289;28;20352;-74
2022/11/28 15:51:58;;;;;;;25.77;15.57;;;8.40;97.10;;;;;;21009188;28;20246;-78
2022/11/28 16:02:49;;;;;;;24.27;16.07;;;8.30;97.30;;;;;;21009661;28;20617;-80
2022/11/28 16:13:00;;;;;;;25.30;15.50;;;8.30;97.60;;;;;;20963349;28;20252;-73
2022/11/28 16:23:18;;;;;;;26.97;17.40;;;8.30;97.80;;;;;;21007306;28;20207;-75
2022/11/28 16:33:49;;;;;;;34.07;18.23;;;8.20;98.00;;;;;;21006389;28;20227;-78
2022/11/28 16:43:58;;;;;;;28.60;18.03;;;8.20;98.20;;;;;;20989235;28;20253;-75
2022/11/28 16:54:27;;;;;;;28.90;17.73;;;8.30;98.40;;;;;;21005656;28;20281;-76
2022/11/28 17:04:29;;;;;;;28.20;17.50;;;8.20;98.50;;;;;;21004605;28;20273;-72
2022/11/28 17:14:31;;;;;;;31.63;17.40;;;;;;;;;;21003588;28;20249;-78
2022/11/28 17:24:34;;;;;;;35.03;21.30;;;8.30;99.00;;;;;;20985196;28;20201;-80
2022/11/28 17:34:36;;;;;;;29.90;18.73;;;8.30;99.10;;;;;;21002574;28;20244;-73
2022/11/28 17:44:38;;;;;;;28.93;18.40;;;8.30;99.30;;;;;;21000710;28;20211;-73
2022/11/28 17:54:39;;;;;;;28.03;18.37;;;8.30;99.50;;;;;;20998745;28;20253;-72
2022/11/28 18:04:41;;;;;;;27.37;18.20;;;8.30;99.70;;;;;;20999298;28;20207;-72
2022/11/28 18:14:42;;;;;;;37.37;20.63;;;8.30;99.90;;;;;;20996767;28;20712;-73
2022/11/28 18:24:44;;;;;;;30.80;18.53;;;8.30;99.90;;;;;;20997918;28;20196;-74
2022/11/28 18:34:46;;;;;;;26.33;16.70;;;8.30;99.90;;;;;;20996870;28;20293;-72
2022/11/28 18:44:48;;;;;;;26.93;17.87;;;8.30;99.90;;;;;;20996208;28;20203;-75
2022/11/28 18:54:49;;;;;;;27.33;17.07;;;8.30;99.90;;;;;;20993957;28;20234;-75
2022/11/28 19:04:51;;;;;;;28.53;18.03;;;8.20;99.90;;;;;;20993642;28;20203;-72
2022/11/28 19:14:53;;;;;;;32.40;18.53;;;8.20;99.90;;;;;;20964491;28;20235;-75
2022/11/28 19:25:02;;;;;;;27.73;17.83;;;8.20;99.90;;;;;;20912076;28;20705;-75
2022/11/28 19:35:04;;;;;;;30.63;18.53;;;8.20;99.90;;;;;;20911509;28;20239;-75
2022/11/28 19:45:07;;;;;;;28.93;17.87;;;8.20;99.90;;;;;;20911033;28;20203;-73
2022/11/28 19:55:08;;;;;;;28.70;18.57;;;8.20;99.90;;;;;;20911092;28;20727;-73
2022/11/28 20:05:10;;;;;;;30.33;18.60;;;8.20;99.90;;;;;;20913239;28;20241;-75
2022/11/28 20:15:12;;;;;;;29.17;18.10;;;8.20;99.90;;;;;;21002851;28;20355;-72
2022/11/28 20:25:18;;;;;;;28.57;19.00;;;8.20;99.90;;;;;;20990661;28;20213;-73
2022/11/28 20:35:23;;;;;;;27.70;17.90;;;8.20;99.90;;;;;;21006582;28;20239;-75
2022/11/28 20:45:24;;;;;;;26.23;16.40;;;8.20;99.90;;;;;;21004994;28;20655;-71
2022/11/28 20:55:26;;;;;;;26.33;16.03;;;8.20;99.90;;;;;;21004761;28;20231;-71
2022/11/28 21:05:29;;;;;;;28.53;16.23;;;8.20;99.90;;;;;;21004129;28;20759;-71
2022/11/28 21:15:30;;;;;;;25.40;15.27;;;8.20;99.90;;;;;;21003443;28;20692;-72
2022/11/28 21:25:35;;;;;;;26.97;16.00;;;8.20;99.90;;;;;;21002425;28;20261;-71
2022/11/28 21:35:38;;;;;;;24.90;15.90;;;8.20;99.90;;;;;;21000142;28;20285;-70
2022/11/28 21:45:40;;;;;;;23.93;15.63;;;8.20;99.90;;;;;;21000523;28;20204;-72
2022/11/28 21:55:43;;;;;;;24.23;16.70;;;8.20;99.90;;;;;;20977134;28;20278;-72
2022/11/28 22:05:44;;;;;;;24.73;16.17;;;8.20;99.90;;;;;;20975738;28;20729;-73
2022/11/28 22:15:46;;;;;;;25.50;15.47;;;8.20;99.90;;;;;;20927220;28;20307;-72
2022/11/28 22:25:51;;;;;;;23.80;15.33;;;8.20;99.90;;;;;;20928883;28;20700;-72
2022/11/28 22:35:53;;;;;;;27.67;15.70;;;8.20;99.90;;;;;;20996291;28;20288;-73
2022/11/28 22:45:56;;;;;;;24.43;14.90;;;8.30;99.90;;;;;;20994391;28;20659;-74
2022/11/28 22:56:06;;;;;;;27.60;16.40;;;8.30;99.90;;;;;;20994159;28;20682;-74
2022/11/28 23:06:14;;;;;;;25.70;16.30;;;8.20;99.90;;;;;;20995468;28;20230;-73
2022/11/28 23:16:19;;;;;;;25.93;17.07;;;8.30;99.90;;;;;;20995438;28;20239;-73
2022/11/28 23:26:23;;;;;;;26.23;17.00;;;8.30;99.90;;;;;;20995474;28;20200;-73
2022/11/28 23:36:34;;;;;;;29.33;17.53;;;8.20;99.90;;;;;;20994425;28;20283;-72
2022/11/28 23:46:43;;;;;;;26.07;17.13;;;8.20;99.90;;;;;;21000814;28;20685;-73
2022/11/28 23:56:45;;;;;;;27.70;17.17;;;8.30;99.90;;;;;;21010462;28;20232;-73
